createdAt,value
2022-12-29T00:01:44.051Z,82.83
2022-12-29T00:04:15.500Z,82.94
2022-12-29T00:06:44.080Z,82.42
2022-12-29T00:09:16.846Z,82.57
2022-12-29T00:11:43.995Z,83.85
2022-12-29T00:14:38.422Z,83.55
2022-12-29T00:17:05.327Z,83.63
2022-12-29T00:19:50.962Z,83.85
2022-12-29T00:22:36.719Z,84.04
2022-12-29T00:25:23.288Z,84.14
2022-12-29T00:28:08.918Z,84.69
2022-12-29T00:30:55.440Z,84.80
2022-12-29T00:33:45.141Z,84.34
2022-12-29T00:36:21.202Z,85.30
2022-12-29T00:39:12.628Z,85.27
2022-12-29T00:41:58.272Z,85.39
2022-12-29T00:44:25.128Z,85.16
2022-12-29T00:46:52.051Z,85.76
2022-12-29T00:49:31.529Z,84.95
2022-12-29T00:52:03.261Z,85.74
2022-12-29T00:54:32.491Z,85.32
2022-12-29T00:56:59.497Z,85.30
2022-12-29T00:59:26.985Z,85.85
2022-12-29T01:01:55.187Z,86.23
2022-12-29T01:04:24.541Z,86.17
2022-12-29T01:06:52.092Z,86.45
2022-12-29T01:09:38.726Z,86.19
2022-12-29T01:12:07.444Z,86.36
2022-12-29T01:14:35.431Z,85.76
2022-12-29T01:17:03.863Z,85.51
2022-12-29T01:19:30.772Z,86.01
2022-12-29T01:21:57.950Z,85.30
2022-12-29T01:24:26.492Z,85.28
2022-12-29T01:26:53.549Z,86.04
2022-12-29T01:29:20.517Z,85.59
2022-12-29T01:31:47.528Z,85.65
2022-12-29T01:34:14.618Z,84.94
2022-12-29T01:36:41.467Z,85.42
2022-12-29T01:39:08.460Z,85.41
2022-12-29T01:41:35.285Z,85.13
2022-12-29T01:44:03.790Z,85.55
2022-12-29T01:46:49.618Z,85.40
2022-12-29T01:49:20.284Z,86.13
2022-12-29T01:51:49.327Z,85.88
2022-12-29T01:54:30.547Z,86.35
2022-12-29T01:57:01.194Z,85.90
2022-12-29T01:59:35.796Z,85.97
2022-12-29T02:02:02.799Z,86.97
2022-12-29T02:04:33.372Z,86.76
2022-12-29T02:07:05.327Z,86.56
2022-12-29T02:09:32.374Z,86.51
2022-12-29T02:12:00.661Z,87.38
2022-12-29T02:14:27.457Z,87.49
2022-12-29T02:17:07.512Z,86.94
2022-12-29T02:19:56.207Z,86.62
2022-12-29T02:23:14.228Z,86.47
2022-12-29T02:26:21.252Z,85.93
2022-12-29T02:29:28.102Z,86.22
2022-12-29T02:32:15.139Z,86.44
2022-12-29T02:35:04.229Z,86.67
2022-12-29T02:37:45.851Z,86.39
2022-12-29T02:40:15.903Z,86.01
2022-12-29T02:42:48.420Z,86.05
2022-12-29T02:45:33.893Z,86.22
2022-12-29T02:48:10.207Z,86.58
2022-12-29T02:50:48.538Z,85.44
2022-12-29T02:53:38.695Z,87.36
2022-12-29T02:56:05.753Z,86.74
2022-12-29T02:58:32.635Z,85.97
2022-12-29T03:01:11.686Z,86.74
2022-12-29T03:03:56.978Z,86.14
2022-12-29T03:06:39.158Z,87.58
2022-12-29T03:09:18.347Z,87.55
2022-12-29T03:26:17.312Z,92.16
2022-12-29T03:28:52.987Z,92.09
2022-12-29T03:31:25.407Z,92.68
2022-12-29T03:33:54.765Z,91.33
2022-12-29T03:36:31.785Z,90.98
2022-12-29T03:39:07.033Z,91.97
2022-12-29T03:41:35.555Z,90.79
2022-12-29T03:44:06.538Z,90.83
2022-12-29T03:46:35.130Z,91.11
2022-12-29T03:49:03.009Z,90.91
2022-12-29T03:51:30.099Z,91.55
2022-12-29T03:53:57.706Z,92.45
2022-12-29T03:56:25.240Z,92.38
2022-12-29T03:58:53.519Z,92.07
2022-12-29T04:01:38.160Z,91.60
2022-12-29T04:04:05.554Z,91.94
2022-12-29T04:06:32.608Z,91.54
2022-12-29T04:09:06.353Z,91.45
2022-12-29T04:11:39.295Z,91.73
2022-12-29T04:14:06.701Z,90.65
2022-12-29T04:16:36.854Z,89.91
2022-12-29T04:19:07.195Z,89.89
2022-12-29T04:21:36.024Z,89.68
2022-12-29T04:24:03.125Z,90.96
2022-12-29T04:26:31.833Z,91.88
2022-12-29T04:29:08.455Z,92.21
2022-12-29T04:31:43.315Z,91.50
2022-12-29T04:34:11.058Z,91.07
2022-12-29T04:36:40.850Z,91.55
2022-12-29T04:39:08.351Z,91.41
2022-12-29T04:41:36.709Z,91.83
2022-12-29T04:44:08.616Z,91.97
2022-12-29T04:46:47.447Z,92.08
2022-12-29T04:49:34.236Z,92.43
2022-12-29T04:52:11.620Z,92.59
2022-12-29T04:54:38.825Z,93.23
2022-12-29T04:57:15.869Z,93.76
2022-12-29T04:59:48.829Z,93.54
2022-12-29T05:02:17.111Z,93.42
2022-12-29T05:04:47.477Z,93.62
2022-12-29T05:07:16.010Z,92.99
2022-12-29T05:09:44.592Z,92.74
2022-12-29T05:12:11.606Z,92.79
2022-12-29T05:14:47.147Z,92.88
2022-12-29T05:18:10.600Z,92.83
2022-12-29T05:20:40.093Z,93.20
2022-12-29T05:23:07.756Z,93.91
2022-12-29T05:25:37.384Z,94.44
2022-12-29T05:28:14.931Z,93.99
2022-12-29T05:30:52.338Z,93.75
2022-12-29T05:33:20.966Z,92.87
2022-12-29T05:35:50.074Z,93.16
2022-12-29T05:38:18.556Z,93.17
2022-12-29T05:40:46.206Z,92.65
2022-12-29T05:43:33.277Z,92.32
2022-12-29T05:46:17.688Z,92.38
2022-12-29T05:49:18.416Z,92.53
2022-12-29T05:52:42.643Z,92.76
2022-12-29T05:55:09.670Z,91.95
2022-12-29T05:57:38.740Z,90.68
2022-12-29T06:00:11.714Z,87.91
2022-12-29T06:02:47.116Z,84.85
2022-12-29T06:05:16.172Z,81.68
2022-12-29T06:07:43.883Z,79.73
2022-12-29T06:10:10.941Z,76.03
2022-12-29T06:12:44.733Z,72.35
2022-12-29T06:15:11.898Z,70.22
2022-12-29T06:17:41.797Z,67.85
2022-12-29T06:20:10.779Z,63.73
2022-12-29T06:22:38.248Z,62.75
2022-12-29T06:25:06.516Z,61.26
2022-12-29T06:27:35.061Z,58.82
2022-12-29T06:30:02.167Z,55.42
2022-12-29T06:32:29.268Z,52.79
2022-12-29T06:35:02.746Z,49.99
2022-12-29T06:37:29.753Z,48.02
2022-12-29T06:39:56.965Z,45.90
2022-12-29T06:42:28.702Z,46.83
2022-12-29T06:45:18.837Z,49.13
2022-12-29T06:47:46.130Z,49.16
2022-12-29T06:50:13.177Z,46.53
2022-12-29T06:52:40.082Z,43.96
2022-12-29T06:55:07.466Z,40.89
2022-12-29T06:57:34.367Z,40.15
2022-12-29T07:00:01.358Z,39.14
2022-12-29T07:02:28.326Z,40.56
2022-12-29T07:04:55.391Z,41.02
2022-12-29T07:07:22.347Z,39.03
2022-12-29T07:09:49.351Z,38.12
2022-12-29T07:12:16.348Z,37.85
2022-12-29T07:14:44.602Z,37.67
2022-12-29T07:17:11.992Z,39.03
2022-12-29T07:19:39.042Z,42.04
2022-12-29T07:22:11.405Z,43.58
2022-12-29T07:24:38.602Z,42.55
2022-12-29T07:27:05.929Z,39.49
2022-12-29T07:29:33.204Z,37.85
2022-12-29T07:32:00.495Z,36.63
2022-12-29T07:34:27.564Z,38.99
2022-12-29T07:36:54.793Z,40.42
2022-12-29T07:39:21.780Z,39.11
2022-12-29T07:41:48.619Z,37.14
2022-12-29T07:44:19.391Z,37.25
2022-12-29T07:46:59.461Z,36.06
2022-12-29T07:49:27.513Z,36.93
2022-12-29T07:51:54.388Z,35.72
2022-12-29T07:54:21.488Z,34.78
2022-12-29T07:56:48.351Z,33.70
2022-12-29T07:59:15.259Z,35.99
2022-12-29T08:01:42.288Z,35.28
2022-12-29T08:04:09.697Z,32.55
2022-12-29T08:06:37.790Z,37.07
2022-12-29T08:09:12.435Z,37.84
2022-12-29T08:11:41.835Z,35.30
2022-12-29T08:14:08.615Z,36.96
2022-12-29T08:16:38.047Z,35.90
2022-12-29T08:19:06.119Z,37.89
2022-12-29T08:21:33.351Z,35.86
2022-12-29T08:24:00.394Z,37.97
2022-12-29T08:26:27.391Z,34.15
2022-12-29T08:28:55.510Z,32.88
2022-12-29T08:31:23.053Z,33.34
2022-12-29T08:33:53.815Z,34.28
2022-12-29T08:36:20.888Z,36.09
2022-12-29T08:38:47.998Z,34.82
2022-12-29T08:41:15.604Z,36.08
2022-12-29T08:43:42.461Z,36.54
2022-12-29T08:46:09.358Z,34.87
2022-12-29T08:48:36.244Z,36.16
2022-12-29T08:51:03.687Z,37.85
2022-12-29T08:53:33.033Z,37.03
2022-12-29T08:56:05.394Z,33.59
2022-12-29T08:58:42.294Z,34.55
2022-12-29T09:01:11.094Z,32.88
2022-12-29T09:04:12.688Z,33.76
2022-12-29T09:06:25.361Z,35.94
2022-12-29T09:08:55.949Z,34.79
2022-12-29T09:11:25.005Z,31.19
2022-12-29T09:13:53.081Z,31.93
2022-12-29T09:16:22.508Z,33.37
2022-12-29T09:18:49.676Z,34.91
2022-12-29T09:21:17.973Z,38.87
2022-12-29T09:23:44.915Z,38.28
2022-12-29T09:26:11.903Z,39.28
2022-12-29T09:28:39.112Z,39.90
2022-12-29T09:31:06.237Z,36.07
2022-12-29T09:33:35.860Z,36.89
2022-12-29T09:36:03.683Z,36.58
2022-12-29T09:38:30.981Z,39.94
2022-12-29T09:41:27.740Z,39.60
2022-12-29T09:44:06.228Z,35.47
2022-12-29T09:46:41.537Z,35.89
2022-12-29T09:49:22.308Z,37.98
2022-12-29T09:51:54.605Z,33.90
2022-12-29T09:54:54.932Z,34.44
2022-12-29T09:57:28.876Z,31.41
2022-12-29T10:00:01.587Z,31.74
2022-12-29T10:02:38.952Z,31.96
2022-12-29T10:05:24.429Z,33.14
2022-12-29T10:08:27.688Z,30.32
2022-12-29T10:11:16.847Z,33.64
2022-12-29T10:13:52.883Z,32.14
2022-12-29T10:16:35.165Z,35.70
2022-12-29T10:19:02.058Z,31.79
2022-12-29T10:21:42.822Z,32.31
2022-12-29T10:24:13.258Z,34.13
2022-12-29T10:26:45.188Z,30.76
2022-12-29T10:29:19.984Z,28.26
2022-12-29T10:32:07.645Z,28.03
2022-12-29T10:34:40.740Z,32.37
2022-12-29T10:37:34.118Z,34.86
2022-12-29T10:40:13.939Z,31.35
2022-12-29T10:42:46.130Z,27.12
2022-12-29T10:45:15.599Z,29.22
2022-12-29T10:48:20.400Z,32.83
2022-12-29T10:50:48.702Z,31.87
2022-12-29T10:53:26.477Z,30.87
2022-12-29T10:55:54.682Z,30.26
2022-12-29T10:58:22.266Z,29.62
2022-12-29T11:00:54.807Z,28.39
2022-12-29T11:03:47.052Z,27.61
2022-12-29T11:06:28.505Z,27.75
2022-12-29T11:08:59.646Z,26.61
2022-12-29T11:11:44.574Z,27.53
2022-12-29T11:14:19.513Z,27.88
2022-12-29T11:16:58.202Z,29.87
2022-12-29T11:19:28.084Z,29.84
2022-12-29T11:21:55.720Z,31.47
2022-12-29T11:24:30.779Z,32.62
2022-12-29T11:27:21.645Z,31.43
2022-12-29T11:29:49.854Z,29.84
2022-12-29T11:32:28.490Z,30.41
2022-12-29T11:34:58.453Z,30.60
2022-12-29T11:37:32.609Z,33.46
2022-12-29T11:40:05.458Z,35.10
2022-12-29T11:42:43.147Z,35.36
2022-12-29T11:45:17.573Z,35.17
2022-12-29T11:47:48.192Z,32.75
2022-12-29T11:50:36.988Z,38.83
2022-12-29T11:53:24.934Z,34.29
2022-12-29T11:55:58.700Z,31.35
2022-12-29T11:58:33.651Z,32.76
2022-12-29T12:01:24.384Z,38.88
2022-12-29T12:04:02.662Z,38.10
2022-12-29T12:06:35.153Z,37.15
2022-12-29T12:09:15.738Z,37.38
2022-12-29T12:11:46.451Z,36.41
2022-12-29T12:14:38.792Z,37.52
2022-12-29T12:17:39.495Z,41.71
2022-12-29T12:20:25.853Z,41.51
2022-12-29T12:22:52.992Z,42.57
2022-12-29T12:25:24.801Z,42.21
2022-12-29T12:28:05.529Z,40.53
2022-12-29T12:30:40.305Z,40.34
2022-12-29T12:33:16.435Z,41.20
2022-12-29T12:35:57.905Z,44.02
2022-12-29T12:38:36.523Z,45.79
2022-12-29T12:41:34.986Z,55.98
2022-12-29T12:44:19.932Z,62.79
2022-12-29T12:47:12.856Z,66.37
2022-12-29T12:49:49.237Z,69.15
2022-12-29T12:52:43.738Z,72.31
2022-12-29T12:55:19.709Z,75.16
2022-12-29T12:58:10.499Z,75.52
2022-12-29T13:01:06.428Z,76.68
2022-12-29T13:04:00.859Z,78.90
2022-12-29T13:06:48.147Z,80.17
2022-12-29T13:09:42.217Z,80.88
2022-12-29T13:12:16.137Z,81.47
2022-12-29T13:17:27.185Z,81.67
2022-12-29T13:20:11.301Z,82.51
2022-12-29T13:22:51.429Z,83.11
2022-12-29T13:25:35.533Z,84.06
2022-12-29T13:28:21.204Z,84.10
2022-12-29T13:31:05.767Z,84.56
2022-12-29T13:33:42.457Z,84.15
2022-12-29T13:36:26.241Z,84.56
2022-12-29T13:39:04.439Z,84.60
2022-12-29T13:41:40.746Z,85.63
2022-12-29T13:44:13.260Z,86.26
2022-12-29T13:46:43.642Z,85.87
2022-12-29T13:49:19.808Z,86.86
2022-12-29T13:51:51.328Z,87.32
2022-12-29T13:54:55.628Z,88.31
2022-12-29T13:57:59.523Z,89.05
2022-12-29T14:00:31.528Z,89.76
2022-12-29T14:03:05.870Z,90.47
2022-12-29T14:05:33.433Z,90.52
2022-12-29T14:08:06.016Z,90.49
2022-12-29T14:10:39.042Z,90.78
2022-12-29T14:13:22.265Z,91.50
2022-12-29T14:15:55.245Z,92.00
2022-12-29T14:18:28.063Z,91.74
2022-12-29T14:21:05.414Z,91.38
2022-12-29T14:23:35.374Z,92.14
2022-12-29T14:26:08.379Z,92.04
2022-12-29T14:28:42.158Z,91.70
2022-12-29T14:31:15.042Z,92.22
2022-12-29T14:34:02.534Z,91.92
2022-12-29T14:36:38.878Z,91.76
2022-12-29T14:39:31.311Z,92.09
2022-12-29T14:42:10.051Z,91.74
2022-12-29T14:45:01.924Z,92.32
2022-12-29T14:47:35.374Z,93.03
2022-12-29T14:50:05.019Z,92.81
2022-12-29T14:52:32.577Z,93.09
2022-12-29T14:55:08.321Z,93.76
2022-12-29T14:57:42.001Z,93.38
2022-12-29T15:00:19.129Z,93.82
2022-12-29T15:03:15.607Z,94.13
2022-12-29T15:05:49.798Z,93.49
2022-12-29T15:08:25.153Z,94.31
2022-12-29T15:11:04.281Z,93.40
2022-12-29T15:28:22.546Z,100.00
2022-12-29T15:31:02.357Z,99.46
2022-12-29T15:33:30.150Z,98.80
2022-12-29T15:36:03.505Z,98.07
2022-12-29T15:38:38.645Z,96.79
2022-12-29T15:41:19.641Z,96.04
2022-12-29T15:43:54.406Z,96.25
2022-12-29T15:46:21.453Z,96.25
2022-12-29T15:48:48.995Z,96.10
2022-12-29T15:51:26.063Z,95.42
2022-12-29T15:53:53.732Z,94.62
2022-12-29T15:56:21.031Z,94.96
2022-12-29T15:58:51.461Z,94.26
2022-12-29T16:01:36.973Z,93.08
2022-12-29T16:04:09.595Z,93.31
2022-12-29T16:06:45.641Z,93.14
2022-12-29T16:09:20.880Z,92.01
2022-12-29T16:11:51.522Z,91.59
2022-12-29T16:14:22.562Z,91.46
2022-12-29T16:16:51.042Z,90.36
2022-12-29T16:19:49.703Z,88.35
2022-12-29T16:22:31.177Z,88.36
2022-12-29T16:25:04.797Z,87.78
2022-12-29T16:27:34.951Z,86.27
2022-12-29T16:30:17.368Z,85.83
2022-12-29T16:32:49.538Z,85.87
2022-12-29T16:35:45.304Z,85.44
2022-12-29T16:38:16.528Z,86.13
2022-12-29T16:40:59.785Z,88.74
2022-12-29T16:43:32.717Z,87.94
2022-12-29T16:46:17.004Z,90.32
2022-12-29T16:48:52.086Z,89.95
2022-12-29T16:51:43.929Z,88.32
2022-12-29T16:54:24.347Z,88.91
2022-12-29T16:56:52.775Z,88.57
2022-12-29T16:59:30.194Z,89.42
2022-12-29T17:01:59.587Z,89.13
2022-12-29T17:04:26.545Z,90.50
2022-12-29T17:06:53.433Z,89.88
2022-12-29T17:09:23.333Z,91.04
2022-12-29T17:12:01.246Z,92.64
2022-12-29T17:14:42.403Z,91.63
2022-12-29T17:17:12.627Z,91.99
2022-12-29T17:19:39.817Z,90.94
2022-12-29T17:22:14.518Z,90.11
2022-12-29T17:24:41.324Z,91.82
2022-12-29T17:27:10.593Z,90.50
2022-12-29T17:29:39.821Z,90.23
2022-12-29T17:32:12.860Z,89.71
2022-12-29T17:34:41.756Z,90.00
2022-12-29T17:37:30.066Z,90.32
2022-12-29T17:39:57.112Z,89.81
2022-12-29T17:42:24.256Z,89.94
2022-12-29T17:44:51.358Z,90.06
2022-12-29T17:47:18.229Z,89.92
2022-12-29T17:49:47.880Z,90.36
2022-12-29T17:52:17.168Z,90.33
2022-12-29T17:54:51.131Z,90.09
2022-12-29T17:57:19.384Z,89.85
2022-12-29T17:59:46.490Z,89.27
2022-12-29T18:02:30.889Z,89.57
2022-12-29T18:04:59.293Z,88.72
2022-12-29T18:07:35.435Z,88.52
2022-12-29T18:10:03.930Z,88.82
2022-12-29T18:12:37.945Z,88.43
2022-12-29T18:15:05.294Z,87.83
2022-12-29T18:17:32.192Z,87.39
2022-12-29T18:19:59.052Z,87.90
2022-12-29T18:22:29.004Z,87.24
2022-12-29T18:24:56.084Z,88.26
2022-12-29T18:27:23.092Z,88.70
2022-12-29T18:29:50.141Z,87.84
2022-12-29T18:32:17.901Z,87.57
2022-12-29T18:34:45.343Z,87.80
2022-12-29T18:37:13.171Z,87.52
2022-12-29T18:39:42.951Z,87.09
2022-12-29T18:42:16.167Z,87.53
2022-12-29T18:44:43.132Z,87.57
2022-12-29T18:47:10.146Z,87.92
2022-12-29T18:49:37.086Z,88.24
2022-12-29T18:52:04.055Z,88.38
2022-12-29T18:54:33.258Z,87.73
2022-12-29T18:57:00.288Z,88.87
2022-12-29T18:59:27.177Z,89.06
2022-12-29T19:01:54.156Z,89.07
2022-12-29T19:04:22.433Z,88.63
2022-12-29T19:06:49.297Z,88.93
2022-12-29T19:09:16.239Z,88.02
2022-12-29T19:11:43.390Z,87.79
2022-12-29T19:14:17.488Z,88.29
2022-12-29T19:16:49.950Z,87.79
2022-12-29T19:19:17.511Z,88.69
2022-12-29T19:21:44.753Z,87.93
2022-12-29T19:24:11.573Z,88.60
2022-12-29T19:26:40.614Z,89.63
2022-12-29T19:29:15.837Z,89.81
2022-12-29T19:31:42.995Z,89.52
2022-12-29T19:34:13.367Z,89.42
2022-12-29T19:36:41.742Z,89.58
2022-12-29T19:39:08.635Z,89.75
2022-12-29T19:41:35.572Z,89.54
2022-12-29T19:44:02.639Z,89.55
2022-12-29T19:46:29.724Z,89.73
2022-12-29T19:48:59.071Z,89.11
2022-12-29T19:51:26.321Z,89.87
2022-12-29T19:53:54.010Z,89.29
2022-12-29T19:56:21.075Z,88.64
2022-12-29T19:58:48.054Z,89.44
2022-12-29T20:01:19.115Z,90.37
2022-12-29T20:03:46.438Z,89.54
2022-12-29T20:06:14.153Z,90.39
2022-12-29T20:08:41.424Z,90.49
2022-12-29T20:11:10.087Z,90.73
2022-12-29T20:13:37.137Z,91.11
2022-12-29T20:16:07.719Z,90.66
2022-12-29T20:18:38.042Z,91.33
2022-12-29T20:21:13.210Z,91.21
2022-12-29T20:23:41.502Z,91.58
2022-12-29T20:26:13.479Z,91.43
2022-12-29T20:28:40.639Z,91.83
2022-12-29T20:31:14.432Z,91.81
2022-12-29T20:33:41.838Z,91.45
2022-12-29T20:36:12.366Z,91.35
2022-12-29T20:38:39.372Z,91.63
2022-12-29T20:41:06.539Z,91.54
2022-12-29T20:43:34.133Z,91.79
2022-12-29T20:46:00.991Z,91.64
2022-12-29T20:48:28.025Z,91.90
2022-12-29T20:50:59.481Z,92.74
2022-12-29T20:53:28.006Z,92.04
2022-12-29T20:55:55.469Z,92.55
2022-12-29T20:58:23.892Z,91.66
2022-12-29T21:00:51.528Z,91.58
2022-12-29T21:03:18.480Z,92.07
2022-12-29T21:05:46.108Z,92.45
2022-12-29T21:08:13.067Z,92.69
2022-12-29T21:10:39.950Z,92.63
2022-12-29T21:13:06.826Z,92.51
2022-12-29T21:15:33.621Z,91.87
2022-12-29T21:18:00.517Z,92.13
2022-12-29T21:20:31.672Z,92.05
2022-12-29T21:23:00.810Z,91.71
2022-12-29T21:25:38.993Z,92.00
2022-12-29T21:28:07.644Z,92.32
2022-12-29T21:30:35.205Z,92.37
2022-12-29T21:33:02.252Z,91.51
2022-12-29T21:35:29.131Z,91.08
2022-12-29T21:37:56.179Z,91.51
2022-12-29T21:40:23.020Z,91.46
2022-12-29T21:42:53.026Z,91.17
2022-12-29T21:45:25.853Z,91.03
2022-12-29T21:48:12.595Z,91.32
2022-12-29T21:51:02.678Z,91.00
2022-12-29T21:53:38.267Z,91.80
2022-12-29T21:56:19.724Z,91.12
2022-12-29T21:59:07.705Z,90.50
2022-12-29T22:01:56.371Z,91.09
2022-12-29T22:04:44.137Z,90.77
2022-12-29T22:07:31.129Z,90.43
2022-12-29T22:10:16.508Z,90.27
2022-12-29T22:13:01.853Z,91.03
2022-12-29T22:15:31.826Z,90.80
2022-12-29T22:17:59.983Z,90.51
2022-12-29T22:20:29.945Z,91.40
2022-12-29T22:22:56.880Z,91.44
2022-12-29T22:25:24.264Z,91.76
2022-12-29T22:27:55.640Z,92.16
2022-12-29T22:30:26.165Z,91.99
2022-12-29T22:32:53.184Z,92.02
2022-12-29T22:35:20.003Z,92.35
2022-12-29T22:37:46.943Z,92.61
2022-12-29T22:40:13.894Z,92.18
2022-12-29T22:42:40.936Z,91.72
2022-12-29T22:45:08.380Z,91.35
2022-12-29T22:47:35.245Z,91.98
2022-12-29T22:50:02.382Z,91.55
2022-12-29T22:52:29.145Z,91.52
2022-12-29T22:54:58.185Z,91.53
2022-12-29T22:57:30.545Z,91.45
2022-12-29T22:59:57.639Z,90.53
2022-12-29T23:02:24.819Z,90.62
2022-12-29T23:05:07.269Z,91.13
2022-12-29T23:07:35.562Z,90.98
2022-12-29T23:10:03.990Z,90.60
2022-12-29T23:12:31.654Z,90.37
2022-12-29T23:14:58.662Z,90.20
2022-12-29T23:17:25.588Z,90.22
2022-12-29T23:19:53.564Z,90.32
2022-12-29T23:22:20.836Z,89.95
2022-12-29T23:24:47.708Z,90.06
2022-12-29T23:27:14.639Z,89.78
2022-12-29T23:29:41.591Z,90.52
2022-12-29T23:32:08.548Z,90.69
2022-12-29T23:34:35.494Z,90.78
2022-12-29T23:37:02.489Z,91.24
2022-12-29T23:39:29.596Z,90.89
2022-12-29T23:41:56.493Z,91.39
2022-12-29T23:44:23.497Z,91.83
2022-12-29T23:46:50.623Z,92.33
2022-12-29T23:49:17.653Z,92.44
2022-12-29T23:51:44.691Z,92.19
2022-12-29T23:54:11.592Z,92.92
2022-12-29T23:56:38.419Z,93.15
2022-12-29T23:59:06.231Z,92.70
